Cool Spring, North Carolina
Current Conditions -  °F | °C
As of 11:55 AM on Tuesday 27 Jan 2015 (Local Time) from KRUQ Reporting Station
Clear Clear  
Wind Chill: 32°   Ceiling: Unl
Heat Index: 39°   Visibility: 10mi
Dew Point: 15°   Wind: 12mph
Humidity: 38%   Direction: 310°NW
Pressure: 29.85"   Gusts: 16mph
Location:  35.7427°N, 80.712°W
Report Text: KRUQ 271655Z AUTO 31010G14KT 280V350 10SM CLR 04/M09 A2985 RMK AO2 T00381095
Loading
Personal Weather Stations






























Interactive Weather Map New forecast layout! Learn more

10-Day Weather Forecast

Advertisements
Track Severe Weather on mobile